Time;durP1;ratioP1;P1;durP2;ratioP2;P2;SDS_P1;SDS_P2;PMS_P1;PMS_P2;Temp;Humidity;BMP_temperature;BMP_pressure;BME280_temperature;BME280_humidity;BME280_pressure;Samples;Min_cycle;Max_cycle;Signal;HPM_P1;HPM_P2
2022/12/31 00:01:42;;;;;;;0.70;0.70;;;11.70;99.90;;;11.98;100.00;97576.31;5043324;28;21342;-76
2022/12/31 00:04:12;;;;;;;0.70;0.70;;;11.70;99.90;;;12.01;100.00;97581.13;5042444;28;20500;-76
2022/12/31 00:06:43;;;;;;;3.80;1.00;;;11.70;99.90;;;12.02;100.00;97587.19;5044976;28;20498;-76
2022/12/31 00:09:19;;;;;;;0.80;0.70;;;11.70;99.90;;;12.04;100.00;97593.03;5050808;28;20492;-75
2022/12/31 00:11:49;;;;;;;2.10;0.87;;;11.70;99.90;;;12.03;100.00;97594.03;5048030;28;20523;-76
2022/12/31 00:14:19;;;;;;;0.80;0.70;;;11.70;99.90;;;12.03;100.00;97594.03;5045847;28;20908;-76
2022/12/31 00:16:49;;;;;;;0.73;0.70;;;11.70;99.90;;;12.02;100.00;97592.44;5050898;28;20531;-76
2022/12/31 00:19:18;;;;;;;1.03;0.93;;;11.70;99.90;;;12.03;100.00;97597.47;5050301;28;20484;-76
2022/12/31 00:21:49;;;;;;;0.70;0.70;;;11.70;99.90;;;12.01;100.00;97596.84;5045656;28;20480;-76
2022/12/31 00:24:18;;;;;;;0.70;0.70;;;11.60;99.90;;;12.03;100.00;97589.63;5047667;28;20967;-75
2022/12/31 00:26:48;;;;;;;0.77;0.77;;;11.70;99.90;;;12.05;100.00;97598.06;5045232;28;20497;-76
2022/12/31 00:29:19;;;;;;;0.70;0.60;;;11.70;99.90;;;12.03;100.00;97587.00;5049640;28;21025;-76
2022/12/31 00:31:48;;;;;;;0.70;0.70;;;11.70;99.90;;;12.04;100.00;97585.97;5044655;28;20539;-76
2022/12/31 00:34:18;;;;;;;0.70;0.60;;;11.60;99.90;;;12.08;100.00;97604.69;5046081;28;20514;-76
2022/12/31 00:36:46;;;;;;;0.70;0.70;;;11.60;99.90;;;12.08;100.00;97589.78;5046242;28;20545;-76
2022/12/31 00:39:18;;;;;;;0.70;0.70;;;11.70;99.90;;;12.08;100.00;97589.78;5048598;28;20499;-76
2022/12/31 00:41:47;;;;;;;1.20;0.70;;;11.70;99.90;;;12.10;100.00;97605.31;5044699;28;20504;-76
2022/12/31 00:44:16;;;;;;;2.40;0.60;;;11.80;99.90;;;12.11;100.00;97591.97;5044685;28;20591;-76
2022/12/31 00:46:47;;;;;;;0.70;0.60;;;11.80;99.90;;;12.12;100.00;97598.03;5045997;28;21192;-76
2022/12/31 00:49:16;;;;;;;0.70;0.60;;;11.70;99.90;;;12.10;100.00;97600.88;5050026;28;20476;-77
2022/12/31 00:51:46;;;;;;;0.90;0.80;;;11.70;99.90;;;12.15;100.00;97602.84;5044879;28;20523;-75
2022/12/31 00:54:15;;;;;;;1.13;0.70;;;11.80;99.90;;;12.16;100.00;97614.16;5045594;28;20468;-76
2022/12/31 00:56:45;;;;;;;0.70;0.63;;;11.80;99.90;;;12.15;100.00;97613.34;5048268;28;21046;-76
2022/12/31 00:59:15;;;;;;;0.80;0.70;;;11.80;99.90;;;12.17;100.00;97621.81;5044769;28;20543;-76
2022/12/31 01:01:46;;;;;;;0.70;0.70;;;11.80;99.90;;;12.21;100.00;97627.44;5045950;28;20492;-76
2022/12/31 01:04:20;;;;;;;2.23;0.70;;;11.80;99.90;;;12.20;100.00;97638.94;5049201;28;20461;-76
2022/12/31 01:06:49;;;;;;;0.80;0.70;;;11.80;99.90;;;12.21;100.00;97638.75;5048345;28;20468;-76
2022/12/31 01:09:19;;;;;;;1.00;0.90;;;11.80;99.90;;;12.22;100.00;97640.34;5049487;28;20461;-75
2022/12/31 01:11:51;;;;;;;0.80;0.80;;;11.80;99.90;;;12.24;100.00;97633.09;5049283;28;20896;-76
2022/12/31 01:14:20;;;;;;;3.00;0.90;;;11.90;99.90;;;12.25;100.00;97647.00;5047013;28;20464;-76
2022/12/31 01:16:53;;;;;;;0.80;0.80;;;11.90;99.90;;;12.27;100.00;97627.44;5048699;28;20496;-76
2022/12/31 01:19:26;;;;;;;0.80;0.80;;;12.00;99.90;;;12.26;100.00;97631.06;5049390;28;20509;-76
2022/12/31 01:21:56;;;;;;;2.50;0.70;;;11.90;99.90;;;12.31;100.00;97641.72;5048660;28;21088;-76
2022/12/31 01:24:26;;;;;;;0.70;0.60;;;12.00;99.90;;;12.33;100.00;97647.56;5046903;28;20461;-76
2022/12/31 01:26:56;;;;;;;2.60;0.93;;;12.00;99.90;;;12.35;100.00;97652.59;5050049;28;20465;-76
2022/12/31 01:29:28;;;;;;;1.20;0.87;;;11.90;99.90;;;12.40;100.00;97664.06;5050614;28;20491;-76
2022/12/31 01:31:59;;;;;;;0.90;0.77;;;12.10;99.90;;;12.45;100.00;97666.09;5049602;28;20473;-76
2022/12/31 01:34:28;;;;;;;1.57;1.00;;;12.10;99.90;;;12.46;100.00;97660.63;5048552;28;20515;-76
2022/12/31 01:36:57;;;;;;;1.10;1.00;;;12.10;99.90;;;12.46;100.00;97662.47;5050938;28;20539;-76
2022/12/31 01:39:26;;;;;;;6.53;1.10;;;12.10;99.90;;;12.48;100.00;97669.09;5050091;28;20484;-75
2022/12/31 01:41:58;;;;;;;0.80;0.80;;;12.10;99.90;;;12.51;100.00;97673.91;5048636;28;20865;-76
2022/12/31 01:44:52;;;;;;;5.60;0.90;;;12.10;99.90;;;12.52;100.00;97672.91;5050488;28;20488;-76
2022/12/31 01:47:35;;;;;;;1.03;0.90;;;12.10;99.90;;;12.55;100.00;97672.50;5052170;28;20540;-76
2022/12/31 01:50:13;;;;;;;3.10;1.20;;;12.20;99.90;;;12.57;100.00;97677.50;5046025;28;20496;-76
2022/12/31 01:52:47;;;;;;;4.73;1.10;;;12.20;99.90;;;12.58;100.00;97687.81;5048684;28;20461;-76
2022/12/31 01:55:24;;;;;;;5.23;1.20;;;12.20;99.90;;;12.59;100.00;97689.44;5047496;28;20460;-77
2022/12/31 01:57:59;;;;;;;2.00;1.00;;;12.20;99.90;;;12.63;100.00;97681.13;5051495;28;20469;-76
2022/12/31 02:00:29;;;;;;;1.23;1.07;;;12.30;99.90;;;12.65;100.00;97673.84;5047098;28;20466;-76
2022/12/31 02:03:01;;;;;;;1.03;0.90;;;12.30;99.90;;;12.68;100.00;97687.34;5046018;28;20500;-76
2022/12/31 02:05:39;;;;;;;1.27;1.10;;;12.40;99.90;;;12.67;100.00;97691.00;5049240;28;20462;-78
2022/12/31 02:08:10;;;;;;;3.67;1.30;;;12.30;99.90;;;12.69;100.00;97693.41;5050277;28;20460;-76
2022/12/31 02:10:39;;;;;;;1.40;1.10;;;12.40;99.90;;;12.68;100.00;97686.56;5048989;28;20883;-76
2022/12/31 02:13:09;;;;;;;1.93;1.30;;;12.30;99.90;;;12.69;100.00;97683.72;5048935;28;20472;-76
2022/12/31 02:15:54;;;;;;;3.53;0.90;;;12.30;99.90;;;12.66;100.00;97694.66;5047936;28;20878;-76
2022/12/31 02:18:39;;;;;;;2.73;1.37;;;12.30;99.90;;;12.69;100.00;97694.22;5048873;28;20490;-76
2022/12/31 02:21:42;;;;;;;1.20;1.10;;;12.30;99.90;;;12.70;100.00;97692.41;5046152;28;20551;-76
2022/12/31 02:25:05;;;;;;;5.00;1.50;;;12.30;99.90;;;12.69;100.00;97701.28;5046701;28;20505;-76
2022/12/31 02:27:58;;;;;;;2.33;1.27;;;12.30;99.90;;;12.70;100.00;97690.59;5050178;28;21486;-76
2022/12/31 02:30:32;;;;;;;7.60;1.50;;;12.40;99.90;;;12.73;100.00;97699.84;5049279;28;20462;-76
2022/12/31 02:33:14;;;;;;;1.40;1.30;;;12.40;99.90;;;12.74;100.00;97696.22;5047901;28;20464;-76
2022/12/31 02:35:51;;;;;;;2.20;1.17;;;12.40;99.90;;;12.75;100.00;97721.44;5049906;28;20457;-77
2022/12/31 02:38:28;;;;;;;10.13;1.60;;;12.40;99.90;;;12.74;100.00;97706.72;5049797;28;20466;-76
2022/12/31 02:40:59;;;;;;;1.30;1.20;;;12.40;99.90;;;12.75;100.00;97698.63;5052817;28;20488;-76
2022/12/31 02:43:30;;;;;;;1.57;1.30;;;12.40;99.90;;;12.73;100.00;97705.09;5045996;28;20477;-76
2022/12/31 02:46:15;;;;;;;1.83;1.20;;;12.40;99.90;;;12.72;100.00;97703.50;5050274;28;20459;-76
2022/12/31 02:48:56;;;;;;;1.20;1.10;;;12.30;99.90;;;12.73;100.00;97699.84;5047149;28;20464;-76
2022/12/31 02:51:41;;;;;;;1.27;1.17;;;12.30;99.90;;;12.73;100.00;97692.78;5047986;28;21034;-76
2022/12/31 02:54:28;;;;;;;2.70;1.53;;;12.30;99.90;;;12.74;100.00;97694.38;5047225;28;20508;-76
2022/12/31 02:57:11;;;;;;;1.40;1.20;;;12.30;99.90;;;12.73;100.00;97697.22;5044884;28;20911;-76
2022/12/31 03:02:44;;;;;;;1.83;1.20;;;12.40;99.90;;;12.73;100.00;97700.66;5046459;28;20948;-76
2022/12/31 03:05:18;;;;;;;1.53;1.23;;;12.40;99.90;;;12.72;100.00;97703.50;5046907;28;20540;-76
2022/12/31 03:07:47;;;;;;;2.57;1.60;;;12.40;99.90;;;12.72;100.00;97709.53;5051276;28;20957;-76
2022/12/31 03:10:18;;;;;;;1.50;1.17;;;12.40;99.90;;;12.74;100.00;97711.97;5045411;28;20465;-76
2022/12/31 03:12:47;;;;;;;2.17;1.30;;;12.40;99.90;;;12.72;100.00;97709.53;5048495;28;20472;-76
2022/12/31 03:15:21;;;;;;;1.30;1.20;;;12.40;99.90;;;12.72;100.00;97703.50;5051348;28;20959;-76
2022/12/31 03:17:59;;;;;;;7.03;1.60;;;12.30;99.90;;;12.74;100.00;97706.72;5049497;28;20491;-76
2022/12/31 03:23:23;;;;;;;1.53;1.43;;;12.40;99.90;;;12.75;100.00;97708.31;5048298;28;20514;-76
2022/12/31 03:25:53;;;;;;;1.47;1.10;;;12.40;99.90;;;12.75;100.00;97705.69;5045955;28;20498;-76
2022/12/31 03:28:25;;;;;;;2.47;1.90;;;12.40;99.90;;;12.75;100.00;97706.50;5046427;28;20964;-76
2022/12/31 03:30:59;;;;;;;4.00;1.40;;;12.40;99.90;;;12.79;100.00;97709.50;5045604;28;20456;-76
2022/12/31 03:33:35;;;;;;;5.77;2.23;;;12.40;99.90;;;12.81;100.00;97710.09;5044489;28;20469;-76
2022/12/31 03:36:06;;;;;;;126.67;57.90;;;12.50;99.90;;;12.80;100.00;97711.94;5044111;28;20466;-72
2022/12/31 03:38:37;;;;;;;5.27;3.07;;;12.40;99.90;;;12.80;100.00;97713.75;5041336;28;20580;-76
2022/12/31 03:41:09;;;;;;;2.53;1.80;;;12.40;99.90;;;12.79;100.00;97712.13;5035422;28;20469;-77
2022/12/31 03:43:39;;;;;;;2.33;1.57;;;12.40;99.90;;;12.82;100.00;97716.97;5037525;28;20584;-76
2022/12/31 03:46:09;;;;;;;108.60;56.47;;;12.50;99.90;;;12.80;100.00;97724.25;5041414;28;25803;-73
2022/12/31 03:48:40;;;;;;;5.93;3.63;;;12.40;99.90;;;12.80;100.00;97724.25;5042803;28;20549;-76
2022/12/31 03:51:11;;;;;;;2.90;2.00;;;12.40;99.90;;;12.78;100.00;97728.88;5046150;28;20511;-76
2022/12/31 03:53:41;;;;;;;16.67;8.53;;;12.30;99.90;;;12.77;100.00;97722.84;5040794;28;20459;-77
2022/12/31 03:56:11;;;;;;;3.30;2.00;;;12.30;99.90;;;12.79;100.00;97730.50;5042467;28;20468;-76
2022/12/31 03:58:42;;;;;;;4.07;1.80;;;12.40;99.90;;;12.76;100.00;97729.09;5040870;28;20469;-77
2022/12/31 04:01:12;;;;;;;2.73;2.53;;;12.40;99.90;;;12.81;100.00;97729.28;5042168;28;20843;-72
2022/12/31 04:03:44;;;;;;;4.57;2.30;;;12.50;99.90;;;12.80;100.00;97726.88;5044500;28;20584;-76
2022/12/31 04:06:15;;;;;;;3.40;2.13;;;12.40;99.90;;;12.83;100.00;97726.44;5039739;28;20461;-77
2022/12/31 04:08:45;;;;;;;2.47;2.23;;;12.50;99.90;;;12.83;100.00;97715.97;5045170;28;20484;-77
2022/12/31 04:11:16;;;;;;;3.27;1.77;;;12.50;99.90;;;12.85;100.00;97724.41;5049839;28;20536;-76
2022/12/31 04:13:49;;;;;;;1.80;1.70;;;12.50;99.90;;;12.85;100.00;97721.78;5045989;28;20959;-76
2022/12/31 04:16:19;;;;;;;4.50;2.40;;;12.50;99.90;;;12.86;100.00;97736.53;5044570;28;20587;-76
2022/12/31 04:18:50;;;;;;;1.87;1.67;;;12.50;99.90;;;12.86;100.00;97731.28;5045099;28;20469;-77
2022/12/31 04:21:20;;;;;;;6.63;2.10;;;12.50;99.90;;;12.90;100.00;97714.09;5045993;28;20564;-77
2022/12/31 04:23:49;;;;;;;3.97;1.60;;;12.60;99.90;;;12.86;100.00;97724.22;5042694;28;20492;-77
2022/12/31 04:26:20;;;;;;;2.53;1.20;;;12.50;99.90;;;12.89;100.00;97715.13;5046901;28;21045;-77
2022/12/31 04:28:50;;;;;;;1.90;1.70;;;12.60;99.90;;;12.91;100.00;97731.47;5045224;28;20501;-76
2022/12/31 04:31:19;;;;;;;3.10;1.60;;;12.60;99.90;;;12.95;100.00;97727.38;5043698;28;20591;-77
2022/12/31 04:33:50;;;;;;;2.93;1.80;;;12.60;99.90;;;12.96;100.00;97727.19;5045497;28;20471;-76
2022/12/31 04:36:20;;;;;;;6.20;2.40;;;12.60;99.90;;;12.97;100.00;97728.00;5046647;28;21042;-77
2022/12/31 04:38:50;;;;;;;2.30;1.70;;;12.70;99.90;;;12.98;100.00;97724.38;5042790;28;20557;-77
2022/12/31 04:41:21;;;;;;;3.20;1.87;;;12.70;99.90;;;13.00;100.00;97731.00;5046997;28;20463;-77
2022/12/31 04:43:54;;;;;;;7.20;4.63;;;12.70;99.90;;;12.99;100.00;97732.03;5045482;28;20841;-73
2022/12/31 04:46:27;;;;;;;1.40;1.30;;;12.70;99.90;;;13.02;100.00;97746.53;5046351;28;21768;-77
2022/12/31 04:48:58;;;;;;;1.97;1.63;;;12.70;99.90;;;12.99;100.00;97767.97;5047531;28;20549;-76
2022/12/31 04:51:29;;;;;;;2.53;1.63;;;12.60;99.90;;;12.99;100.00;97749.59;5042191;28;21033;-76
2022/12/31 04:53:59;;;;;;;2.60;1.40;;;12.60;99.90;;;13.01;100.00;97768.56;5045744;28;20563;-76
2022/12/31 04:56:31;;;;;;;2.10;1.63;;;12.60;99.90;;;13.05;100.00;97754.00;5045708;28;20480;-76
2022/12/31 04:59:01;;;;;;;7.30;3.60;;;12.70;99.90;;;13.08;100.00;97766.72;5047473;28;20872;-76
2022/12/31 05:01:31;;;;;;;2.10;1.40;;;12.70;99.90;;;13.09;100.00;97774.41;5045615;28;20457;-76
2022/12/31 05:04:06;;;;;;;5.40;1.70;;;12.80;99.90;;;13.13;100.00;97753.78;5047148;28;20492;-77
2022/12/31 05:06:36;;;;;;;5.47;1.20;;;12.80;99.90;;;13.14;100.00;97750.16;5048018;28;20588;-76
2022/12/31 05:09:06;;;;;;;4.20;1.70;;;12.80;99.90;;;13.18;100.00;97755.78;5051140;28;20540;-76
2022/12/31 05:11:36;;;;;;;2.27;1.50;;;12.80;99.90;;;13.19;100.00;97760.81;5048577;28;20466;-77
2022/12/31 05:14:06;;;;;;;3.03;1.33;;;12.90;99.90;;;13.21;100.00;97766.69;5044800;28;20460;-77
2022/12/31 05:16:35;;;;;;;1.73;1.33;;;12.90;99.90;;;13.22;100.00;97752.53;5050238;28;20518;-76
2022/12/31 05:19:08;;;;;;;1.50;1.40;;;12.80;99.90;;;13.21;100.00;97756.19;5051174;28;20473;-76
2022/12/31 05:21:37;;;;;;;12.47;1.07;;;12.80;99.90;;;13.29;100.00;97769.06;5048401;28;20474;-77
2022/12/31 05:24:09;;;;;;;34.33;17.13;;;13.00;99.90;;;13.28;100.00;97772.69;5050257;28;20487;-76
2022/12/31 05:26:40;;;;;;;2.23;2.03;;;12.90;99.90;;;13.30;100.00;97769.84;5049833;28;20497;-76
2022/12/31 05:29:10;;;;;;;1.73;1.50;;;12.90;99.90;;;13.26;100.00;97774.72;5046129;28;20558;-76
2022/12/31 05:31:40;;;;;;;1.33;1.23;;;12.90;99.90;;;13.24;100.00;97768.88;5050520;28;20548;-78
2022/12/31 05:34:11;;;;;;;5.85;1.55;;;12.90;99.90;;;13.29;100.00;97769.06;5048046;28;20499;-78
2022/12/31 05:36:41;;;;;;;2.20;1.60;;;12.90;99.90;;;13.31;100.00;97777.53;5048903;28;20209;-78
2022/12/31 05:39:11;;;;;;;1.67;1.30;;;12.90;99.90;;;13.33;100.00;97778.09;5050333;28;20491;-79
2022/12/31 05:41:39;;;;;;;2.80;1.50;;;13.00;99.90;;;13.33;100.00;97774.69;5048182;28;20572;-79
2022/12/31 05:44:08;;;;;;;7.07;1.37;;;12.90;99.90;;;13.33;100.00;97777.34;5047186;28;20517;-80
2022/12/31 05:46:37;;;;;;;1.50;1.40;;;13.00;99.90;;;13.33;100.00;97796.50;5050161;28;20544;-78
2022/12/31 05:49:07;;;;;;;1.83;1.10;;;13.00;99.90;;;13.34;100.00;97790.22;5048018;28;20465;-79
2022/12/31 05:51:39;;;;;;;1.30;1.20;;;13.00;99.90;;;13.35;100.00;97789.22;5048982;28;20465;-79
2022/12/31 05:54:10;;;;;;;1.23;1.13;;;13.00;99.90;;;13.35;100.00;97791.84;5050540;28;20468;-78
2022/12/31 05:56:39;;;;;;;1.40;1.30;;;13.00;99.90;;;13.37;100.00;97789.81;5048290;28;20547;-79
2022/12/31 05:59:10;;;;;;;2.70;1.50;;;13.10;99.90;;;13.36;100.00;97782.16;5049500;28;20465;-79
2022/12/31 06:01:38;;;;;;;1.27;1.10;;;13.00;99.90;;;13.38;100.00;97778.28;5046090;28;20546;-78
2022/12/31 06:04:07;;;;;;;1.50;1.40;;;13.10;99.90;;;13.36;100.00;97790.81;5052931;28;20460;-79
2022/12/31 06:06:38;;;;;;;3.63;1.53;;;13.00;99.90;;;13.40;100.00;97791.19;5048810;28;21098;-79
2022/12/31 06:09:08;;;;;;;1.30;1.20;;;13.10;99.90;;;13.43;100.00;97794.22;5050196;28;20526;-79
2022/12/31 06:11:38;;;;;;;2.07;1.30;;;13.10;99.90;;;13.45;100.00;97799.28;5049063;28;20461;-78
2022/12/31 06:14:08;;;;;;;1.80;1.47;;;13.10;99.90;;;13.44;100.00;97802.91;5046120;28;21013;-78
2022/12/31 06:16:39;;;;;;;1.80;1.10;;;13.10;99.90;;;13.44;100.00;97806.34;5047316;28;20544;-78
2022/12/31 06:19:08;;;;;;;1.90;1.70;;;13.10;99.90;;;13.46;100.00;97821.91;5052070;28;20690;-78
2022/12/31 06:21:40;;;;;;;1.87;1.20;;;13.20;99.90;;;13.45;100.00;97825.53;5046976;28;20961;-78
2022/12/31 06:24:10;;;;;;;1.97;1.20;;;13.10;99.90;;;13.46;100.00;97814.84;5051155;28;20792;-78
2022/12/31 06:26:39;;;;;;;2.40;1.33;;;13.10;99.90;;;13.47;100.00;97819.03;5046479;28;20577;-79
2022/12/31 06:29:10;;;;;;;3.00;1.47;;;13.10;99.90;;;13.47;100.00;97834.00;5048808;28;20473;-79
2022/12/31 06:31:39;;;;;;;2.30;1.20;;;13.10;99.90;;;13.50;100.00;97829.13;5046516;28;20466;-78
2022/12/31 06:34:11;;;;;;;1.63;1.20;;;13.20;99.90;;;13.50;100.00;97825.72;5047029;28;21361;-78
2022/12/31 06:36:43;;;;;;;2.80;1.40;;;13.20;99.90;;;13.51;100.00;97833.38;5045929;28;20482;-79
2022/12/31 06:39:14;;;;;;;3.67;1.30;;;13.20;99.90;;;13.51;100.00;97846.50;5048209;28;21113;-78
2022/12/31 06:41:43;;;;;;;2.47;1.50;;;13.20;99.90;;;13.51;100.00;97835.19;5046566;28;20470;-79
2022/12/31 06:44:13;;;;;;;1.70;1.27;;;13.20;99.90;;;13.51;100.00;97850.97;5046619;28;20496;-79
2022/12/31 06:46:44;;;;;;;2.33;1.40;;;13.10;99.90;;;13.53;100.00;97851.56;5046097;28;20619;-79
2022/12/31 06:49:15;;;;;;;4.83;1.77;;;13.20;99.90;;;13.54;100.00;97856.59;5049077;28;20465;-78
2022/12/31 06:51:47;;;;;;;3.33;1.10;;;13.10;99.90;;;13.53;100.00;97857.63;5046288;28;21010;-78
2022/12/31 06:54:18;;;;;;;1.10;1.00;;;13.20;99.90;;;13.56;100.00;97859.84;5046155;28;20523;-78
2022/12/31 06:56:50;;;;;;;1.47;1.23;;;13.20;99.90;;;13.57;100.00;97866.69;5049374;28;20567;-79
2022/12/31 06:59:26;;;;;;;2.07;1.30;;;13.20;99.90;;;13.58;100.00;97847.28;5052136;28;20453;-78
2022/12/31 07:02:41;;;;;;;6.70;1.80;;;13.30;99.90;;;13.56;100.00;97856.41;5046157;28;21446;-78
2022/12/31 07:05:27;;;;;;;4.80;1.10;;;13.20;99.90;;;13.57;100.00;97856.16;5026541;28;20488;-79
2022/12/31 07:08:17;;;;;;;2.47;1.20;;;13.20;99.90;;;13.58;100.00;97851.72;5049135;28;21012;-78
2022/12/31 07:10:59;;;;;;;3.17;1.53;;;13.30;99.90;;;13.59;100.00;97864.66;5050577;28;20495;-78
2022/12/31 07:14:08;;;;;;;1.33;1.10;;;13.20;99.90;;;13.60;100.00;97865.47;5045460;28;20808;-79
2022/12/31 07:16:53;;;;;;;1.67;1.00;;;13.30;99.90;;;13.61;100.00;97870.50;5047539;28;20491;-79
2022/12/31 07:19:53;;;;;;;10.60;1.70;;;13.30;99.90;;;13.60;100.00;97882.06;5049455;28;21016;-79
2022/12/31 07:22:27;;;;;;;2.03;1.10;;;13.30;99.90;;;13.59;100.00;97880.44;5046377;28;20564;-78
2022/12/31 07:24:59;;;;;;;2.27;1.50;;;13.30;99.90;;;13.61;100.00;97878.38;5051022;28;20471;-78
2022/12/31 07:27:48;;;;;;;3.73;1.60;;;13.30;99.90;;;13.59;100.00;97893.56;5049515;28;20464;-78
2022/12/31 07:30:22;;;;;;;4.00;1.20;;;13.20;99.90;;;13.61;100.00;97880.19;5046459;28;21031;-78
2022/12/31 07:33:19;;;;;;;9.67;1.57;;;13.20;99.90;;;13.59;100.00;97896.19;5047879;28;20495;-78
2022/12/31 07:36:04;;;;;;;6.13;1.20;;;13.20;99.90;;;13.57;100.00;97903.47;5044900;28;20549;-79
2022/12/31 07:38:47;;;;;;;1.97;1.17;;;13.20;99.90;;;13.57;100.00;97907.94;5045211;28;20545;-78
2022/12/31 07:41:39;;;;;;;3.53;1.20;;;13.20;99.90;;;13.56;100.00;97912.38;5045174;28;20549;-79
2022/12/31 07:44:34;;;;;;;2.23;1.00;;;13.20;99.90;;;13.54;100.00;97910.97;5048334;28;20467;-78
2022/12/31 07:47:14;;;;;;;2.10;1.40;;;13.20;99.90;;;13.56;100.00;97911.56;5048885;28;20492;-78
2022/12/31 07:49:45;;;;;;;5.17;1.47;;;13.20;99.90;;;13.56;100.00;97925.53;5050935;28;20469;-78
2022/12/31 07:52:17;;;;;;;1.90;1.40;;;13.20;99.90;;;13.56;100.00;97912.38;5050151;28;20477;-78
2022/12/31 07:54:46;;;;;;;3.80;1.57;;;13.20;99.90;;;13.53;100.00;97918.06;5045544;28;20464;-78
2022/12/31 07:57:20;;;;;;;1.13;1.00;;;13.20;99.90;;;13.56;100.00;97930.78;5047994;28;20472;-78
2022/12/31 08:00:06;;;;;;;3.57;1.43;;;13.20;99.90;;;13.56;100.00;97937.84;5045554;28;20457;-78
2022/12/31 08:03:10;;;;;;;1.93;1.10;;;13.20;99.90;;;13.54;100.00;97931.97;5045209;28;20461;-78
2022/12/31 08:05:51;;;;;;;1.40;1.30;;;13.20;99.90;;;13.52;100.00;97926.94;5045571;28;21071;-79
2022/12/31 08:08:36;;;;;;;2.40;1.10;;;13.10;99.90;;;13.54;100.00;97934.59;5046792;28;20472;-78
2022/12/31 08:11:18;;;;;;;7.23;1.37;;;13.10;99.90;;;13.54;100.00;97924.91;5048230;28;20496;-78
2022/12/31 08:13:53;;;;;;;1.83;1.30;;;13.20;99.90;;;13.55;100.00;97933.59;5046484;28;20894;-78
2022/12/31 08:16:24;;;;;;;4.80;1.93;;;13.20;99.90;;;13.53;100.00;97944.34;5047324;28;20515;-78
2022/12/31 08:18:57;;;;;;;5.70;1.20;;;13.20;99.90;;;13.51;100.00;97930.56;5044988;28;20473;-79
2022/12/31 08:21:43;;;;;;;3.47;1.57;;;13.10;99.90;;;13.53;100.00;97933.81;5049441;28;20495;-78
2022/12/31 08:24:25;;;;;;;2.03;1.50;;;13.10;99.90;;;13.56;100.00;97937.84;5046435;28;20465;-78
2022/12/31 08:27:06;;;;;;;2.60;1.33;;;13.20;99.90;;;13.54;100.00;97934.59;5046749;28;20493;-78
2022/12/31 08:29:53;;;;;;;3.40;1.30;;;13.10;99.90;;;13.54;100.00;97929.34;5042321;28;20986;-78
2022/12/31 08:32:31;;;;;;;2.23;1.40;;;13.20;99.90;;;13.54;100.00;97938.03;5044993;28;20462;-78
2022/12/31 08:35:18;;;;;;;7.57;1.60;;;13.10;99.90;;;13.58;100.00;97933.19;5047031;28;21022;-78
2022/12/31 08:37:57;;;;;;;7.30;1.23;;;13.20;99.90;;;13.56;100.00;97928.16;5044919;28;20499;-78
2022/12/31 08:40:38;;;;;;;3.27;1.50;;;13.20;99.90;;;13.60;100.00;97926.72;5046640;28;20545;-78
2022/12/31 08:43:26;;;;;;;2.43;1.30;;;13.20;99.90;;;13.62;100.00;97929.13;5044306;28;20469;-78
2022/12/31 08:46:00;;;;;;;1.73;1.37;;;13.30;99.90;;;13.60;100.00;97931.97;5049401;28;20478;-78
2022/12/31 08:48:38;;;;;;;2.73;1.53;;;13.20;99.90;;;13.61;100.00;97930.94;5044771;28;20469;-78
2022/12/31 08:51:18;;;;;;;1.13;1.00;;;13.30;99.90;;;13.60;100.00;97946.94;5050152;28;20460;-78
2022/12/31 08:53:49;;;;;;;1.30;1.10;;;13.20;99.90;;;13.61;100.00;97953.78;5045897;28;21002;-78
2022/12/31 08:56:30;;;;;;;1.87;1.13;;;13.20;99.90;;;13.63;100.00;97937.81;5047497;28;20469;-78
2022/12/31 08:59:19;;;;;;;7.00;1.80;;;13.30;99.90;;;13.64;100.00;97939.44;5043116;28;20489;-78
2022/12/31 09:02:19;;;;;;;2.60;1.47;;;13.30;99.90;;;13.65;100.00;97947.09;5047651;28;21043;-78
2022/12/31 09:05:04;;;;;;;3.57;1.20;;;13.30;99.90;;;13.67;100.00;97952.97;5047429;28;20465;-78
2022/12/31 09:07:48;;;;;;;2.53;1.50;;;13.30;99.90;;;13.68;100.00;97959.00;5049725;28;20562;-79
2022/12/31 09:10:28;;;;;;;1.87;1.50;;;13.30;99.90;;;13.72;100.00;97960.19;5045879;28;21059;-78
2022/12/31 09:13:12;;;;;;;2.87;1.33;;;13.40;99.90;;;13.75;100.00;97965.03;5048657;28;20461;-78
2022/12/31 09:15:51;;;;;;;4.40;1.90;;;13.40;99.90;;;13.78;100.00;97969.91;5049517;28;20938;-78
2022/12/31 09:18:25;;;;;;;7.50;1.40;;;13.40;99.90;;;13.81;100.00;97961.59;5046614;28;21392;-78
2022/12/31 09:21:01;;;;;;;2.10;1.73;;;13.50;99.90;;;13.84;100.00;97974.31;5043298;28;20485;-78
2022/12/31 09:23:35;;;;;;;2.30;1.60;;;13.50;99.90;;;13.85;100.00;97970.69;5047193;28;20969;-78
2022/12/31 09:26:29;;;;;;;1.77;1.10;;;13.50;99.90;;;13.89;100.00;97969.22;5052592;28;20459;-78
2022/12/31 09:29:09;;;;;;;3.97;1.33;;;13.50;99.90;;;13.91;100.00;97975.09;5048072;28;20974;-79
2022/12/31 09:31:49;;;;;;;4.57;1.60;;;13.60;99.90;;;13.91;100.00;97965.38;5053775;28;20521;-78
2022/12/31 09:34:32;;;;;;;1.70;1.40;;;13.60;99.90;;;13.93;100.00;97975.69;5050262;28;20510;-79
2022/12/31 09:37:10;;;;;;;2.27;1.60;;;13.50;99.90;;;13.92;100.00;97981.94;5052703;28;20485;-78
2022/12/31 09:39:45;;;;;;;5.53;1.20;;;13.50;99.90;;;13.96;100.00;97983.13;5050037;28;20459;-78
2022/12/31 09:42:57;;;;;;;2.20;1.17;;;13.60;99.90;;;13.95;100.00;97989.44;5048718;28;20461;-78
2022/12/31 09:46:34;;;;;;;5.17;1.00;;;13.60;99.90;;;13.97;100.00;97987.38;5047343;28;20461;-79
2022/12/31 09:49:45;;;;;;;2.27;1.47;;;13.60;99.90;;;13.99;100.00;97985.34;5037327;28;20853;-78
2022/12/31 09:52:25;;;;;;;2.97;1.33;;;13.60;99.90;;;14.00;100.00;97985.16;5045527;28;20546;-79
2022/12/31 09:55:16;;;;;;;1.60;1.20;;;13.70;99.90;;;14.02;100.00;97985.72;5053013;28;20460;-78
2022/12/31 09:58:02;;;;;;;7.50;1.60;;;13.70;99.90;;;14.03;100.00;97986.53;5050292;28;20476;-78
2022/12/31 10:00:42;;;;;;;3.50;1.40;;;13.70;99.90;;;14.05;100.00;97984.53;5049482;28;20537;-79
2022/12/31 10:03:58;;;;;;;2.97;1.50;;;13.70;99.90;;;14.05;100.00;97985.34;5049834;28;20545;-79
2022/12/31 10:06:38;;;;;;;7.20;1.77;;;13.70;99.90;;;14.09;100.00;97985.72;5050475;28;20528;-78
2022/12/31 10:09:46;;;;;;;2.50;1.30;;;13.70;99.90;;;14.13;100.00;98007.94;5044803;28;20984;-78
2022/12/31 10:12:41;;;;;;;3.53;1.43;;;13.80;99.90;;;14.13;100.00;98005.31;5048654;28;20488;-78
2022/12/31 10:15:40;;;;;;;5.37;1.27;;;13.80;99.90;;;14.17;100.00;98001.25;5046308;28;20469;-78
2022/12/31 10:18:34;;;;;;;4.30;1.60;;;13.80;99.90;;;14.20;100.00;98000.81;5048414;28;21023;-78
2022/12/31 10:21:28;;;;;;;2.93;1.37;;;13.90;99.90;;;14.21;100.00;98002.44;5049876;28;20940;-78
2022/12/31 10:24:44;;;;;;;1.97;1.20;;;13.90;99.90;;;14.26;100.00;97999.19;5048741;28;20553;-78
2022/12/31 10:27:31;;;;;;;1.90;1.40;;;14.00;99.90;;;14.28;100.00;98003.22;5050746;28;20587;-78
2022/12/31 10:30:15;;;;;;;3.57;1.50;;;14.00;99.90;;;14.32;100.00;98001.78;5053368;28;20464;-78
2022/12/31 10:33:07;;;;;;;7.90;1.80;;;14.00;99.90;;;14.33;100.00;97995.50;5049818;28;21037;-78
2022/12/31 10:35:50;;;;;;;2.87;1.50;;;14.00;99.90;;;14.35;100.00;98011.09;5049596;28;20474;-78
2022/12/31 10:38:32;;;;;;;1.93;1.40;;;14.00;99.90;;;14.37;100.00;98001.97;5050811;28;20460;-78
2022/12/31 10:42:16;;;;;;;2.03;1.47;;;13.90;99.90;;;14.45;100.00;98006.16;5044768;28;20461;-78
2022/12/31 10:45:23;;;;;;;2.53;1.30;;;14.00;99.90;;;14.50;100.00;98001.91;4958652;28;20917;-78
2022/12/31 10:48:42;;;;;;;2.40;1.30;;;14.10;99.90;;;14.54;100.00;97997.78;4957726;28;20579;-78
2022/12/31 10:51:55;;;;;;;4.57;1.80;;;14.20;99.90;;;14.55;100.00;98004.69;5051564;28;20514;-78
2022/12/31 10:55:02;;;;;;;1.80;1.30;;;14.10;99.90;;;14.59;100.00;97991.91;5030281;28;20995;-78
2022/12/31 10:58:56;;;;;;;3.83;1.53;;;14.20;99.90;;;14.63;100.00;97992.28;5022498;28;20464;-78
2022/12/31 11:01:47;;;;;;;2.13;1.60;;;14.30;99.90;;;14.65;100.00;98003.41;5027241;28;20473;-78
2022/12/31 11:05:03;;;;;;;1.97;1.57;;;14.30;99.90;;;14.63;100.00;98003.63;5043898;28;20991;-78